createdAt,value
2018-12-19T00:00:57.800Z,5.30
2018-12-19T00:02:01.410Z,5.30
2018-12-19T00:03:05.099Z,5.30
2018-12-19T00:04:09.068Z,5.30
2018-12-19T00:05:13.280Z,5.30
2018-12-19T00:06:16.962Z,5.30
2018-12-19T00:07:20.508Z,5.20
2018-12-19T00:08:24.095Z,5.20
2018-12-19T00:09:27.544Z,5.20
2018-12-19T00:10:31.175Z,5.20
2018-12-19T00:11:35.352Z,5.20
2018-12-19T00:12:40.040Z,5.20
2018-12-19T00:13:43.621Z,5.20
2018-12-19T00:14:47.224Z,5.20
2018-12-19T00:15:52.028Z,5.20
2018-12-19T00:16:55.578Z,5.20
2018-12-19T00:17:59.072Z,5.20
2018-12-19T00:19:03.045Z,5.10
2018-12-19T00:20:07.653Z,5.20
2018-12-19T00:21:11.160Z,5.10
2018-12-19T00:22:14.702Z,5.10
2018-12-19T00:23:18.450Z,5.10
2018-12-19T00:24:22.117Z,5.10
2018-12-19T00:25:25.579Z,5.10
2018-12-19T00:26:29.312Z,5.10
2018-12-19T00:27:32.864Z,5.10
2018-12-19T00:28:37.820Z,5.10
2018-12-19T00:29:41.278Z,5.10
2018-12-19T00:30:46.732Z,5.10
2018-12-19T00:31:50.202Z,5.10
2018-12-19T00:32:54.448Z,5.10
2018-12-19T00:33:58.412Z,5.10
2018-12-19T00:35:02.408Z,5.10
2018-12-19T00:36:06.017Z,5.10
2018-12-19T00:37:09.501Z,5.10
2018-12-19T00:38:13.140Z,5.20
2018-12-19T00:39:16.665Z,5.20
2018-12-19T00:40:20.179Z,5.20
2018-12-19T00:41:23.661Z,5.20
2018-12-19T00:42:27.299Z,5.20
2018-12-19T00:43:30.838Z,5.20
2018-12-19T00:44:34.447Z,5.20
2018-12-19T00:45:38.037Z,5.20
2018-12-19T00:46:41.649Z,5.20
2018-12-19T00:47:45.102Z,5.20
2018-12-19T00:48:49.245Z,5.20
2018-12-19T00:49:52.740Z,5.20
2018-12-19T00:50:56.401Z,5.20
2018-12-19T00:52:00.079Z,5.10
2018-12-19T00:53:03.744Z,5.20
2018-12-19T00:54:07.323Z,5.10
2018-12-19T00:55:11.438Z,5.10
2018-12-19T00:56:14.898Z,5.10
2018-12-19T00:57:18.711Z,5.10
2018-12-19T00:58:22.273Z,5.10
2018-12-19T00:59:26.234Z,5.10
2018-12-19T01:00:30.815Z,5.00
2018-12-19T01:01:34.475Z,5.00
2018-12-19T01:02:37.961Z,5.00
2018-12-19T01:03:42.278Z,5.00
2018-12-19T01:04:48.257Z,5.00
2018-12-19T01:05:51.277Z,5.00
2018-12-19T01:06:54.726Z,5.10
2018-12-19T01:07:58.249Z,5.00
2018-12-19T01:09:01.741Z,5.00
2018-12-19T01:10:05.865Z,5.00
2018-12-19T01:11:10.041Z,5.00
2018-12-19T01:12:13.727Z,4.90
2018-12-19T01:13:17.275Z,5.00
2018-12-19T01:14:21.529Z,4.90
2018-12-19T01:15:25.665Z,4.90
2018-12-19T01:16:29.128Z,4.90
2018-12-19T01:17:32.653Z,4.90
2018-12-19T01:18:36.318Z,4.90
2018-12-19T01:19:40.230Z,4.90
2018-12-19T01:20:43.707Z,4.90
2018-12-19T01:21:47.193Z,5.00
2018-12-19T01:22:51.160Z,5.00
2018-12-19T01:23:54.829Z,4.90
2018-12-19T01:24:59.606Z,5.00
2018-12-19T01:26:03.222Z,5.00
2018-12-19T01:27:06.965Z,4.90
2018-12-19T01:28:11.309Z,4.90
2018-12-19T01:29:15.439Z,5.00
2018-12-19T01:30:19.168Z,5.00
2018-12-19T01:31:22.701Z,5.00
2018-12-19T01:32:26.182Z,5.00
2018-12-19T01:33:29.871Z,5.00
2018-12-19T01:34:33.766Z,5.00
2018-12-19T01:35:37.368Z,5.00
2018-12-19T01:36:40.983Z,5.00
2018-12-19T01:37:44.536Z,5.00
2018-12-19T01:38:48.120Z,5.00
2018-12-19T01:39:51.624Z,5.00
2018-12-19T01:40:55.451Z,5.00
2018-12-19T01:41:59.206Z,5.00
2018-12-19T01:43:02.924Z,5.00
2018-12-19T01:44:06.417Z,5.10
2018-12-19T01:45:09.924Z,5.00
2018-12-19T01:46:13.371Z,5.00
2018-12-19T01:47:17.791Z,5.10
2018-12-19T01:48:22.148Z,5.00
2018-12-19T01:49:25.662Z,5.00
2018-12-19T01:50:29.217Z,5.10
2018-12-19T01:51:32.834Z,5.00
2018-12-19T01:52:36.346Z,5.10
2018-12-19T01:53:39.947Z,5.10
2018-12-19T01:54:43.438Z,5.10
2018-12-19T01:55:47.112Z,5.10
2018-12-19T01:56:50.610Z,5.10
2018-12-19T01:57:55.022Z,5.10
2018-12-19T01:58:59.288Z,5.10
2018-12-19T02:00:04.235Z,5.20
2018-12-19T02:01:08.481Z,5.20
2018-12-19T02:02:12.629Z,5.20
2018-12-19T02:03:16.312Z,5.20
2018-12-19T02:04:20.185Z,5.20
2018-12-19T02:05:23.696Z,5.20
2018-12-19T02:06:27.303Z,5.20
2018-12-19T02:07:30.768Z,5.20
2018-12-19T02:08:34.383Z,5.20
2018-12-19T02:09:37.822Z,5.20
2018-12-19T02:10:41.375Z,5.20
2018-12-19T02:11:44.811Z,5.20
2018-12-19T02:12:49.044Z,5.30
2018-12-19T02:13:52.567Z,5.30
2018-12-19T02:14:56.333Z,5.30
2018-12-19T02:15:59.841Z,5.20
2018-12-19T02:17:03.521Z,5.20
2018-12-19T02:18:06.983Z,5.20
2018-12-19T02:19:10.673Z,5.20
2018-12-19T02:20:14.437Z,5.30
2018-12-19T02:21:17.983Z,5.20
2018-12-19T02:22:21.530Z,5.20
2018-12-19T02:23:25.025Z,5.20
2018-12-19T02:24:28.486Z,5.20
2018-12-19T02:25:31.994Z,5.10
2018-12-19T02:26:35.668Z,5.10
2018-12-19T02:27:39.184Z,5.10
2018-12-19T02:28:43.184Z,5.10
2018-12-19T02:29:46.667Z,5.10
2018-12-19T02:30:50.407Z,5.10
2018-12-19T02:31:54.896Z,5.10
2018-12-19T02:32:58.615Z,5.00
2018-12-19T02:34:02.911Z,5.00
2018-12-19T02:35:06.769Z,5.00
2018-12-19T02:36:10.382Z,5.00
2018-12-19T02:37:13.913Z,5.00
2018-12-19T02:38:17.949Z,5.00
2018-12-19T02:39:21.530Z,5.00
2018-12-19T02:40:25.482Z,5.00
2018-12-19T02:41:29.220Z,5.10
2018-12-19T02:42:32.952Z,5.10
2018-12-19T02:43:36.485Z,5.10
2018-12-19T02:44:40.536Z,5.10
2018-12-19T02:45:44.955Z,5.10
2018-12-19T02:46:48.930Z,5.10
2018-12-19T02:47:52.415Z,5.20
2018-12-19T02:48:56.532Z,5.20
2018-12-19T02:50:00.313Z,5.20
2018-12-19T02:51:03.916Z,5.20
2018-12-19T02:52:07.468Z,5.30
2018-12-19T02:53:10.995Z,5.30
2018-12-19T02:54:14.435Z,5.30
2018-12-19T02:55:17.981Z,5.40
2018-12-19T02:56:21.930Z,5.40
2018-12-19T02:57:26.424Z,5.40
2018-12-19T02:58:29.976Z,5.50
2018-12-19T02:59:33.735Z,5.60
2018-12-19T03:00:37.436Z,5.60
2018-12-19T03:01:41.040Z,5.70
2018-12-19T03:02:44.664Z,5.70
2018-12-19T03:03:48.267Z,5.80
2018-12-19T03:04:51.841Z,5.90
2018-12-19T03:05:56.028Z,5.90
2018-12-19T03:06:59.537Z,5.90
2018-12-19T03:08:03.087Z,6.00
2018-12-19T03:09:08.541Z,6.00
2018-12-19T03:10:12.051Z,6.10
2018-12-19T03:11:15.732Z,6.10
2018-12-19T03:12:19.287Z,6.20
2018-12-19T03:13:22.780Z,6.30
2018-12-19T03:14:26.292Z,6.30
2018-12-19T03:15:30.129Z,6.30
2018-12-19T03:16:34.596Z,6.30
2018-12-19T03:17:38.119Z,6.40
2018-12-19T03:18:42.504Z,6.40
2018-12-19T03:19:46.188Z,6.40
2018-12-19T03:20:49.650Z,6.50
2018-12-19T03:21:53.686Z,6.50
2018-12-19T03:22:57.283Z,6.50
2018-12-19T03:24:00.815Z,6.50
2018-12-19T03:25:04.397Z,6.50
2018-12-19T03:26:07.924Z,6.50
2018-12-19T03:27:11.383Z,6.50
2018-12-19T03:28:14.856Z,6.50
2018-12-19T03:29:18.709Z,6.50
2018-12-19T03:30:22.219Z,6.50
2018-12-19T03:31:25.746Z,6.40
2018-12-19T03:32:29.321Z,6.40
2018-12-19T03:33:33.167Z,6.50
2018-12-19T03:34:36.688Z,6.50
2018-12-19T03:35:40.580Z,6.50
2018-12-19T03:36:44.715Z,6.50
2018-12-19T03:37:48.863Z,6.50
2018-12-19T03:38:52.508Z,6.50
2018-12-19T03:39:56.168Z,6.50
2018-12-19T03:41:00.256Z,6.50
2018-12-19T03:42:03.719Z,6.50
2018-12-19T03:43:07.179Z,6.50
2018-12-19T03:44:11.303Z,6.50
2018-12-19T03:45:14.981Z,6.50
2018-12-19T03:46:19.152Z,6.50
2018-12-19T03:47:23.148Z,6.50
2018-12-19T03:48:31.893Z,6.40
2018-12-19T03:49:36.436Z,6.50
2018-12-19T03:50:39.843Z,6.50
2018-12-19T03:51:43.758Z,6.50
2018-12-19T03:52:47.285Z,6.50
2018-12-19T03:53:50.936Z,6.50
2018-12-19T03:54:54.419Z,6.50
2018-12-19T03:55:58.770Z,6.50
2018-12-19T03:57:02.323Z,6.50
2018-12-19T03:58:06.008Z,6.50
2018-12-19T03:59:09.561Z,6.50
2018-12-19T04:00:13.110Z,6.50
2018-12-19T04:01:16.798Z,6.50
2018-12-19T04:02:20.257Z,6.50
2018-12-19T04:03:23.728Z,6.50
2018-12-19T04:04:27.406Z,6.50
2018-12-19T04:05:36.785Z,6.60
2018-12-19T04:06:40.357Z,6.50
2018-12-19T04:07:43.882Z,6.50
2018-12-19T04:08:47.315Z,6.60
2018-12-19T04:09:57.441Z,6.60
2018-12-19T04:10:56.323Z,6.50
2018-12-19T04:11:59.797Z,6.50
2018-12-19T04:13:03.253Z,6.60
2018-12-19T04:14:06.804Z,6.60
2018-12-19T04:15:11.136Z,6.60
2018-12-19T04:16:14.596Z,6.60
2018-12-19T04:17:18.097Z,6.60
2018-12-19T04:18:21.627Z,6.60
2018-12-19T04:19:25.121Z,6.60
2018-12-19T04:20:29.461Z,6.60
2018-12-19T04:21:32.897Z,6.50
2018-12-19T04:22:36.325Z,6.50
2018-12-19T04:23:39.788Z,6.50
2018-12-19T04:24:43.322Z,6.50
2018-12-19T04:25:46.836Z,6.50
2018-12-19T04:26:50.358Z,6.50
2018-12-19T04:27:53.824Z,6.50
2018-12-19T04:28:57.391Z,6.50
2018-12-19T04:30:01.029Z,6.50
2018-12-19T04:31:04.611Z,6.40
2018-12-19T04:32:08.069Z,6.40
2018-12-19T04:33:11.738Z,6.40
2018-12-19T04:34:15.202Z,6.30
2018-12-19T04:35:18.627Z,6.30
2018-12-19T04:36:22.210Z,6.40
2018-12-19T04:37:25.712Z,6.30
2018-12-19T04:38:29.630Z,6.40
2018-12-19T04:39:33.123Z,6.30
2018-12-19T04:40:36.635Z,6.30
2018-12-19T04:41:40.091Z,6.30
2018-12-19T04:42:43.628Z,6.30
2018-12-19T04:43:47.056Z,6.40
2018-12-19T04:44:50.587Z,6.30
2018-12-19T04:45:54.038Z,6.30
2018-12-19T04:46:57.710Z,6.30
2018-12-19T04:48:01.222Z,6.30
2018-12-19T04:49:04.761Z,6.30
2018-12-19T04:50:08.418Z,6.30
2018-12-19T04:51:12.002Z,6.30
2018-12-19T04:52:15.559Z,6.30
2018-12-19T04:53:19.069Z,6.20
2018-12-19T04:54:22.655Z,6.20
2018-12-19T04:55:26.211Z,6.20
2018-12-19T04:56:30.499Z,6.20
2018-12-19T04:57:34.063Z,6.20
2018-12-19T04:58:37.953Z,6.30
2018-12-19T04:59:41.669Z,6.20
2018-12-19T05:00:45.203Z,6.20
2018-12-19T05:01:48.668Z,6.20
2018-12-19T05:02:52.265Z,6.10
2018-12-19T05:03:55.766Z,6.20
2018-12-19T05:04:59.215Z,6.20
2018-12-19T05:06:02.884Z,6.20
2018-12-19T05:07:06.368Z,6.20
2018-12-19T05:08:09.884Z,6.20
2018-12-19T05:09:13.343Z,6.20
2018-12-19T05:10:17.145Z,6.20
2018-12-19T05:11:20.626Z,6.10
2018-12-19T05:12:24.121Z,6.20
2018-12-19T05:13:27.596Z,6.20
2018-12-19T05:14:31.452Z,6.20
2018-12-19T05:15:35.129Z,6.20
2018-12-19T05:16:38.607Z,6.20
2018-12-19T05:17:42.173Z,6.20
2018-12-19T05:18:45.695Z,6.20
2018-12-19T05:19:49.393Z,6.20
2018-12-19T05:20:52.883Z,6.20
2018-12-19T05:21:56.536Z,6.20
2018-12-19T05:22:59.997Z,6.30
2018-12-19T05:24:04.271Z,6.30
2018-12-19T05:25:11.024Z,6.30
2018-12-19T05:26:14.710Z,6.40
2018-12-19T05:27:18.211Z,6.40
2018-12-19T05:28:21.695Z,6.40
2018-12-19T05:29:25.274Z,6.40
2018-12-19T05:30:28.789Z,6.40
2018-12-19T05:31:32.511Z,6.40
2018-12-19T05:32:36.008Z,6.50
2018-12-19T05:33:39.718Z,6.50
2018-12-19T05:34:43.227Z,6.50
2018-12-19T05:35:46.724Z,6.50
2018-12-19T05:36:50.256Z,6.50
2018-12-19T05:37:53.775Z,6.50
2018-12-19T05:38:57.704Z,6.50
2018-12-19T05:40:01.231Z,6.50
2018-12-19T05:41:04.791Z,6.50
2018-12-19T05:42:08.394Z,6.50
2018-12-19T05:43:12.237Z,6.50
2018-12-19T05:44:15.924Z,6.50
2018-12-19T05:45:19.568Z,6.50
2018-12-19T05:46:23.101Z,6.50
2018-12-19T05:47:26.805Z,6.50
2018-12-19T05:48:31.173Z,6.60
2018-12-19T05:49:35.512Z,6.50
2018-12-19T05:50:39.417Z,6.50
2018-12-19T05:51:42.926Z,6.60
2018-12-19T05:52:46.752Z,6.60
2018-12-19T05:53:51.429Z,6.60
2018-12-19T05:54:56.311Z,6.60
2018-12-19T05:56:00.000Z,6.60
2018-12-19T05:57:03.662Z,6.60
2018-12-19T05:58:07.450Z,6.60
2018-12-19T05:59:11.975Z,6.60
2018-12-19T06:00:15.690Z,6.70
2018-12-19T06:01:19.381Z,6.80
2018-12-19T06:02:23.079Z,6.70
2018-12-19T06:03:27.025Z,6.80
2018-12-19T06:04:30.668Z,6.90
2018-12-19T06:05:34.427Z,6.90
2018-12-19T06:06:37.912Z,7.00
2018-12-19T06:07:41.494Z,7.00
2018-12-19T06:08:45.071Z,7.00
2018-12-19T06:09:48.717Z,7.00
2018-12-19T06:10:52.282Z,7.00
2018-12-19T06:11:55.771Z,7.00
2018-12-19T06:12:59.289Z,7.10
2018-12-19T06:14:02.758Z,7.00
2018-12-19T06:15:06.442Z,7.00
2018-12-19T06:16:11.180Z,7.10
2018-12-19T06:17:14.640Z,7.10
2018-12-19T06:18:18.278Z,7.10
2018-12-19T06:19:21.801Z,7.10
2018-12-19T06:20:25.636Z,7.10
2018-12-19T06:21:29.107Z,7.20
2018-12-19T06:22:32.923Z,7.10
2018-12-19T06:23:36.427Z,7.20
2018-12-19T06:24:39.969Z,7.20
2018-12-19T06:25:43.477Z,7.20
2018-12-19T06:26:47.005Z,7.20
2018-12-19T06:27:50.616Z,7.20
2018-12-19T06:28:54.138Z,7.20
2018-12-19T06:29:57.662Z,7.20
2018-12-19T06:31:01.275Z,7.20
2018-12-19T06:32:04.856Z,7.20
2018-12-19T06:33:08.615Z,7.20
2018-12-19T06:34:12.228Z,7.20
2018-12-19T06:35:15.901Z,7.20
2018-12-19T06:36:19.667Z,7.20
2018-12-19T06:37:23.280Z,7.30
2018-12-19T06:38:26.847Z,7.20
2018-12-19T06:39:30.411Z,7.20
2018-12-19T06:40:34.155Z,7.30
2018-12-19T06:41:37.696Z,7.30
2018-12-19T06:42:41.247Z,7.20
2018-12-19T06:43:45.580Z,7.30
2018-12-19T06:44:49.136Z,7.20
2018-12-19T06:45:52.801Z,7.20
2018-12-19T06:46:56.367Z,7.20
2018-12-19T06:48:00.240Z,7.20
2018-12-19T06:49:03.802Z,7.30
2018-12-19T06:50:09.194Z,7.30
2018-12-19T06:51:12.794Z,7.30
2018-12-19T06:52:16.420Z,7.30
2018-12-19T06:53:21.496Z,7.20
2018-12-19T06:54:25.061Z,7.30
2018-12-19T06:55:28.619Z,7.30
2018-12-19T06:56:32.319Z,7.30
2018-12-19T06:57:36.230Z,7.30
2018-12-19T06:58:39.765Z,7.20
2018-12-19T06:59:43.562Z,7.30
2018-12-19T07:00:47.189Z,7.30
2018-12-19T07:01:50.715Z,7.30
2018-12-19T07:02:54.283Z,7.30
2018-12-19T07:03:57.781Z,7.30
2018-12-19T07:05:01.359Z,7.30
2018-12-19T07:06:04.986Z,7.30
2018-12-19T07:07:08.547Z,7.30
2018-12-19T07:08:12.281Z,7.40
2018-12-19T07:09:16.105Z,7.40
2018-12-19T07:10:19.601Z,7.40
2018-12-19T07:11:23.808Z,7.40
2018-12-19T07:12:27.332Z,7.40
2018-12-19T07:13:31.168Z,7.40
2018-12-19T07:14:37.107Z,7.40
2018-12-19T07:15:40.630Z,7.40
2018-12-19T07:16:44.135Z,7.30
2018-12-19T07:17:47.666Z,7.30
2018-12-19T07:18:51.304Z,7.30
2018-12-19T07:19:54.872Z,7.30
2018-12-19T07:20:58.792Z,7.30
2018-12-19T07:22:02.325Z,7.30
2018-12-19T07:23:05.931Z,7.30
2018-12-19T07:24:09.611Z,7.30
2018-12-19T07:25:13.335Z,7.30
2018-12-19T07:26:16.800Z,7.30
2018-12-19T07:27:20.312Z,7.30
2018-12-19T07:28:23.814Z,7.30
2018-12-19T07:29:27.420Z,7.30
2018-12-19T07:30:31.006Z,7.30
2018-12-19T07:31:34.672Z,7.30
2018-12-19T07:32:38.200Z,7.30
2018-12-19T07:33:43.077Z,7.30
2018-12-19T07:34:46.838Z,7.30
2018-12-19T07:35:50.447Z,7.30
2018-12-19T07:36:53.970Z,7.30
2018-12-19T07:37:57.512Z,7.40
2018-12-19T07:39:01.015Z,7.40
2018-12-19T07:40:04.764Z,7.40
2018-12-19T07:41:08.300Z,7.30
2018-12-19T07:42:11.998Z,7.30
2018-12-19T07:43:15.539Z,7.30
2018-12-19T07:44:19.045Z,7.30
2018-12-19T07:45:22.587Z,7.20
2018-12-19T07:46:26.111Z,7.30
2018-12-19T07:47:29.703Z,7.30
2018-12-19T07:48:33.534Z,7.30
2018-12-19T07:49:37.347Z,7.20
2018-12-19T07:50:40.851Z,7.20
2018-12-19T07:51:44.721Z,7.30
2018-12-19T07:52:48.672Z,7.20
2018-12-19T07:53:52.255Z,7.20
2018-12-19T07:54:55.730Z,7.30
2018-12-19T07:56:00.100Z,7.30
2018-12-19T07:57:03.656Z,7.30
2018-12-19T07:58:07.334Z,7.30
2018-12-19T07:59:11.100Z,7.30
2018-12-19T08:00:14.943Z,7.30
2018-12-19T08:01:18.443Z,7.30
2018-12-19T08:02:22.072Z,7.30
2018-12-19T08:03:25.693Z,7.30
2018-12-19T08:04:29.479Z,7.30
2018-12-19T08:05:33.011Z,7.40
2018-12-19T08:06:36.659Z,7.30
2018-12-19T08:07:40.172Z,7.40
2018-12-19T08:08:43.665Z,7.30
2018-12-19T08:09:47.201Z,7.30
2018-12-19T08:10:52.277Z,7.30
2018-12-19T08:11:56.024Z,7.30
2018-12-19T08:12:59.539Z,7.30
2018-12-19T08:14:03.093Z,7.30
2018-12-19T08:15:06.786Z,7.30
2018-12-19T08:16:10.339Z,7.30
2018-12-19T08:17:13.981Z,7.40
2018-12-19T08:18:17.545Z,7.40
2018-12-19T08:19:21.077Z,7.40
2018-12-19T08:20:24.601Z,7.40
2018-12-19T08:21:28.223Z,7.40
2018-12-19T08:22:31.729Z,7.40
2018-12-19T08:23:35.590Z,7.40
2018-12-19T08:24:39.116Z,7.40
2018-12-19T08:25:42.752Z,7.40
2018-12-19T08:26:46.283Z,7.40
2018-12-19T08:27:49.912Z,7.40
2018-12-19T08:28:53.569Z,7.40
2018-12-19T08:29:57.075Z,7.40
2018-12-19T08:31:00.607Z,7.40
2018-12-19T08:32:04.207Z,7.40
2018-12-19T08:33:07.692Z,7.50
2018-12-19T08:34:11.607Z,7.50
2018-12-19T08:35:15.192Z,7.40
2018-12-19T08:36:18.932Z,7.40
2018-12-19T08:37:22.419Z,7.40
2018-12-19T08:38:25.957Z,7.40
2018-12-19T08:39:29.679Z,7.50
2018-12-19T08:40:33.315Z,7.40
2018-12-19T08:41:39.006Z,7.40
2018-12-19T08:42:42.511Z,7.40
2018-12-19T08:43:46.274Z,7.40
2018-12-19T08:44:49.883Z,7.40
2018-12-19T08:45:53.685Z,7.40
2018-12-19T08:46:57.281Z,7.40
2018-12-19T08:48:00.877Z,7.40
2018-12-19T08:49:04.556Z,7.50
2018-12-19T08:50:09.567Z,7.40
2018-12-19T08:51:13.215Z,7.50
2018-12-19T08:52:16.839Z,7.50
2018-12-19T08:53:20.398Z,7.50
2018-12-19T08:54:24.738Z,7.50
2018-12-19T08:55:28.231Z,7.40
2018-12-19T08:56:31.799Z,7.40
2018-12-19T08:57:35.324Z,7.40
2018-12-19T08:58:39.383Z,7.40
2018-12-19T08:59:42.852Z,7.40
2018-12-19T09:00:46.455Z,7.50
2018-12-19T09:01:49.979Z,7.50
2018-12-19T09:02:53.548Z,7.50
2018-12-19T09:03:57.107Z,7.50
2018-12-19T09:05:00.787Z,7.50
2018-12-19T09:06:04.747Z,7.40
2018-12-19T09:07:08.313Z,7.40
2018-12-19T09:08:12.067Z,7.40
2018-12-19T09:09:15.751Z,7.50
2018-12-19T09:10:19.366Z,7.40
2018-12-19T09:11:22.904Z,7.40
2018-12-19T09:12:26.519Z,7.50
2018-12-19T09:13:30.286Z,7.50
2018-12-19T09:14:34.067Z,7.40
2018-12-19T09:15:43.025Z,7.50
2018-12-19T09:16:46.654Z,7.50
2018-12-19T09:17:50.229Z,7.50
2018-12-19T09:18:53.802Z,7.50
2018-12-19T09:19:57.656Z,7.50
2018-12-19T09:21:01.245Z,7.50
2018-12-19T09:22:04.778Z,7.50
2018-12-19T09:23:08.355Z,7.60
2018-12-19T09:24:12.024Z,7.50
2018-12-19T09:25:15.587Z,7.50
2018-12-19T09:26:19.228Z,7.50
2018-12-19T09:27:22.815Z,7.60
2018-12-19T09:28:26.393Z,7.60
2018-12-19T09:29:30.077Z,7.60
2018-12-19T09:30:33.632Z,7.60
2018-12-19T09:31:38.610Z,7.60
2018-12-19T09:32:42.151Z,7.60
2018-12-19T09:33:45.922Z,7.70
2018-12-19T09:34:49.429Z,7.70
2018-12-19T09:35:53.030Z,7.70
2018-12-19T09:36:56.577Z,7.70
2018-12-19T09:38:00.226Z,7.70
2018-12-19T09:39:05.620Z,7.80
2018-12-19T09:40:09.129Z,7.80
2018-12-19T09:41:13.359Z,7.80
2018-12-19T09:42:16.995Z,7.90
2018-12-19T09:43:20.759Z,7.90
2018-12-19T09:44:24.349Z,8.00
2018-12-19T09:45:27.859Z,8.00
2018-12-19T09:46:31.502Z,8.10
2018-12-19T09:47:35.101Z,8.10
2018-12-19T09:48:38.868Z,8.10
2018-12-19T09:49:42.436Z,8.10
2018-12-19T09:50:46.035Z,8.10
2018-12-19T09:51:49.583Z,8.10
2018-12-19T09:52:53.146Z,8.20
2018-12-19T09:53:56.700Z,8.20
2018-12-19T09:55:00.232Z,8.20
2018-12-19T09:56:03.916Z,8.20
2018-12-19T09:57:07.559Z,8.20
2018-12-19T09:58:11.137Z,8.30
2018-12-19T09:59:14.937Z,8.30
2018-12-19T10:00:23.760Z,8.30
2018-12-19T10:01:27.341Z,8.30
2018-12-19T10:02:30.922Z,8.30
2018-12-19T10:03:34.904Z,8.30
2018-12-19T10:04:39.354Z,8.30
2018-12-19T10:05:42.916Z,8.30
2018-12-19T10:06:46.542Z,8.40
2018-12-19T10:07:50.293Z,8.40
2018-12-19T10:08:53.901Z,8.50
2018-12-19T10:09:57.540Z,8.50
2018-12-19T10:11:01.659Z,8.60
2018-12-19T10:12:05.400Z,8.60
2018-12-19T10:13:09.011Z,8.70
2018-12-19T10:14:12.754Z,8.80
2018-12-19T10:15:16.323Z,8.80
2018-12-19T10:16:19.814Z,8.80
2018-12-19T10:17:23.464Z,8.70
2018-12-19T10:18:27.748Z,8.80
2018-12-19T10:19:31.384Z,8.80
2018-12-19T10:20:35.471Z,8.80
2018-12-19T10:21:39.981Z,8.80
2018-12-19T10:22:43.513Z,8.80
2018-12-19T10:23:47.692Z,8.80
2018-12-19T10:24:57.035Z,8.80
2018-12-19T10:26:06.118Z,8.80
2018-12-19T10:27:12.146Z,8.90
2018-12-19T10:28:20.139Z,8.90
2018-12-19T10:29:23.632Z,8.90
2018-12-19T10:30:27.153Z,8.90
2018-12-19T10:31:30.693Z,8.80
2018-12-19T10:32:40.018Z,8.80
2018-12-19T10:33:43.807Z,8.80
2018-12-19T10:34:47.254Z,8.80
2018-12-19T10:35:50.924Z,8.80
2018-12-19T10:36:54.423Z,8.80
2018-12-19T10:37:58.620Z,8.80
2018-12-19T10:39:04.570Z,8.80
2018-12-19T10:40:11.774Z,8.80
2018-12-19T10:41:15.469Z,8.80
2018-12-19T10:42:19.067Z,8.90
2018-12-19T10:43:22.564Z,8.90
2018-12-19T10:44:26.281Z,8.90
2018-12-19T10:45:29.832Z,8.90
2018-12-19T10:46:33.496Z,8.90
2018-12-19T10:47:37.102Z,8.90
2018-12-19T10:48:41.463Z,9.00
2018-12-19T10:49:45.076Z,9.00
2018-12-19T10:50:48.617Z,9.00
2018-12-19T10:51:52.249Z,9.00
2018-12-19T10:52:56.027Z,9.00
2018-12-19T10:53:59.664Z,9.00
2018-12-19T10:55:03.875Z,9.00
2018-12-19T10:56:07.437Z,9.00
2018-12-19T10:57:11.123Z,9.10
2018-12-19T10:58:14.758Z,9.10
2018-12-19T10:59:18.271Z,9.20
2018-12-19T11:00:27.058Z,9.20
2018-12-19T11:01:30.574Z,9.20
2018-12-19T11:02:34.099Z,9.20
2018-12-19T11:03:37.755Z,9.20
2018-12-19T11:04:41.467Z,9.10
2018-12-19T11:05:44.971Z,9.10
2018-12-19T11:06:48.548Z,9.20
2018-12-19T11:07:52.110Z,9.10
2018-12-19T11:08:55.813Z,9.10
2018-12-19T11:09:59.412Z,9.00
2018-12-19T11:11:03.039Z,9.00
2018-12-19T11:12:07.299Z,9.00
2018-12-19T11:13:11.364Z,9.00
2018-12-19T11:14:16.390Z,9.00
2018-12-19T11:15:20.072Z,9.00
2018-12-19T11:16:24.237Z,9.00
2018-12-19T11:17:27.794Z,9.00
2018-12-19T11:18:31.350Z,9.00
2018-12-19T11:19:34.938Z,9.10
2018-12-19T11:20:39.547Z,9.10
2018-12-19T11:21:43.103Z,9.10
2018-12-19T11:22:46.616Z,9.10
2018-12-19T11:23:51.329Z,9.10
2018-12-19T11:24:55.085Z,9.10
2018-12-19T11:25:58.793Z,9.10
2018-12-19T11:27:02.415Z,9.10
2018-12-19T11:28:06.468Z,9.10
2018-12-19T11:29:10.306Z,9.10
2018-12-19T11:30:14.284Z,9.10
2018-12-19T11:31:17.779Z,9.20
2018-12-19T11:32:21.317Z,9.20
2018-12-19T11:33:25.661Z,9.20
2018-12-19T11:34:29.201Z,9.20
2018-12-19T11:35:32.834Z,9.20
2018-12-19T11:36:37.187Z,9.20
2018-12-19T11:37:41.183Z,9.20
2018-12-19T11:38:45.551Z,9.30
2018-12-19T11:39:49.435Z,9.30
2018-12-19T11:40:53.166Z,9.30
2018-12-19T11:41:57.068Z,9.30
2018-12-19T11:43:00.651Z,9.30
2018-12-19T11:44:04.800Z,9.40
2018-12-19T11:45:08.568Z,9.40
2018-12-19T11:46:12.926Z,9.50
2018-12-19T11:47:16.503Z,9.50
2018-12-19T11:48:20.382Z,9.50
2018-12-19T11:49:25.440Z,9.50
2018-12-19T11:50:29.072Z,9.50
2018-12-19T11:51:32.555Z,9.50
2018-12-19T11:52:36.166Z,9.60
2018-12-19T11:53:39.808Z,9.60
2018-12-19T11:54:43.418Z,9.70
2018-12-19T11:55:47.055Z,9.70
2018-12-19T11:56:50.585Z,9.70
2018-12-19T11:57:54.375Z,9.80
2018-12-19T11:58:58.631Z,9.80
2018-12-19T12:00:02.291Z,9.80
2018-12-19T12:01:05.927Z,9.70
2018-12-19T12:02:09.595Z,9.80
2018-12-19T12:03:14.205Z,9.80
2018-12-19T12:04:17.837Z,9.80
2018-12-19T12:05:21.356Z,9.80
2018-12-19T12:06:25.358Z,9.80
2018-12-19T12:07:28.926Z,9.80
2018-12-19T12:08:32.504Z,9.80
2018-12-19T12:09:37.819Z,9.80
2018-12-19T12:10:41.507Z,9.80
2018-12-19T12:11:45.753Z,9.80
2018-12-19T12:12:50.373Z,9.80
2018-12-19T12:13:54.034Z,9.80
2018-12-19T12:14:58.562Z,9.80
2018-12-19T12:16:02.281Z,9.80
2018-12-19T12:17:05.798Z,9.80
2018-12-19T12:18:09.363Z,9.80
2018-12-19T12:19:14.169Z,9.80
2018-12-19T12:20:17.750Z,9.80
2018-12-19T12:21:21.360Z,9.80
2018-12-19T12:22:24.940Z,9.90
2018-12-19T12:23:28.589Z,9.90
2018-12-19T12:24:32.341Z,9.90
2018-12-19T12:25:35.906Z,9.90
2018-12-19T12:26:40.104Z,9.90
2018-12-19T12:27:44.171Z,9.90
2018-12-19T12:28:47.727Z,9.90
2018-12-19T12:29:51.551Z,9.90
2018-12-19T12:30:55.837Z,10.00
2018-12-19T12:31:59.322Z,10.00
2018-12-19T12:33:03.048Z,10.00
2018-12-19T12:34:06.628Z,10.00
2018-12-19T12:35:11.262Z,10.00
2018-12-19T12:36:15.183Z,10.00
2018-12-19T12:37:19.740Z,10.10
2018-12-19T12:38:23.467Z,10.00
2018-12-19T12:39:27.232Z,10.00
2018-12-19T12:40:30.800Z,10.00
2018-12-19T12:41:34.339Z,10.10
2018-12-19T12:42:38.146Z,10.10
2018-12-19T12:43:42.640Z,10.10
2018-12-19T12:44:46.343Z,10.10
2018-12-19T12:45:50.151Z,10.10
2018-12-19T12:46:54.472Z,10.10
2018-12-19T12:47:57.994Z,10.10
2018-12-19T12:49:02.332Z,10.10
2018-12-19T12:50:06.556Z,10.10
2018-12-19T12:51:10.667Z,10.10
2018-12-19T12:52:14.384Z,10.20
2018-12-19T12:53:17.960Z,10.10
2018-12-19T12:54:21.723Z,10.00
2018-12-19T12:55:25.851Z,10.00
2018-12-19T12:56:29.417Z,9.90
2018-12-19T12:57:34.084Z,9.90
2018-12-19T12:58:37.768Z,9.90
2018-12-19T12:59:41.803Z,9.80
2018-12-19T13:00:45.292Z,9.80
2018-12-19T13:01:49.830Z,9.80
2018-12-19T13:02:54.144Z,9.80
2018-12-19T13:03:57.650Z,9.80
2018-12-19T13:05:01.309Z,9.80
2018-12-19T13:06:04.874Z,9.80
2018-12-19T13:07:09.722Z,9.80
2018-12-19T13:08:14.265Z,9.80
2018-12-19T13:09:17.824Z,9.80
2018-12-19T13:10:21.389Z,9.80
2018-12-19T13:11:25.340Z,9.80
2018-12-19T13:12:28.969Z,9.80
2018-12-19T13:13:32.722Z,9.80
2018-12-19T13:14:36.274Z,9.70
2018-12-19T13:15:43.993Z,9.70
2018-12-19T13:16:47.562Z,9.70
2018-12-19T13:17:51.745Z,9.70
2018-12-19T13:18:55.386Z,9.70
2018-12-19T13:19:59.497Z,9.80
2018-12-19T13:21:03.184Z,9.80
2018-12-19T13:22:06.865Z,9.70
2018-12-19T13:23:10.502Z,9.80
2018-12-19T13:24:14.139Z,9.70
2018-12-19T13:25:17.611Z,9.70
2018-12-19T13:26:22.029Z,9.70
2018-12-19T13:27:25.834Z,9.70
2018-12-19T13:28:29.424Z,9.70
2018-12-19T13:29:33.101Z,9.70
2018-12-19T13:30:37.297Z,9.80
2018-12-19T13:31:40.938Z,9.80
2018-12-19T13:32:44.837Z,9.80
2018-12-19T13:33:49.478Z,9.80
2018-12-19T13:34:54.216Z,9.90
2018-12-19T13:35:57.848Z,9.90
2018-12-19T13:37:01.513Z,9.90
2018-12-19T13:38:05.178Z,9.90
2018-12-19T13:39:08.858Z,9.90
2018-12-19T13:40:12.837Z,9.90
2018-12-19T13:41:16.471Z,9.90
2018-12-19T13:42:19.971Z,9.90
2018-12-19T13:43:23.776Z,9.90
2018-12-19T13:44:27.673Z,9.90
2018-12-19T13:45:31.801Z,9.90
2018-12-19T13:46:35.336Z,9.90
2018-12-19T13:47:39.585Z,9.80
2018-12-19T13:48:43.082Z,9.80
2018-12-19T13:49:46.734Z,9.80
2018-12-19T13:50:51.775Z,9.80
2018-12-19T13:51:55.581Z,9.80
2018-12-19T13:52:59.497Z,9.90
2018-12-19T13:54:03.792Z,9.90
2018-12-19T13:55:07.712Z,9.90
2018-12-19T13:56:11.761Z,9.90
2018-12-19T13:57:15.374Z,9.90
2018-12-19T13:58:21.215Z,9.90
2018-12-19T13:59:25.700Z,9.90
2018-12-19T14:00:29.270Z,9.90
2018-12-19T14:01:32.869Z,9.90
2018-12-19T14:02:36.560Z,9.90
2018-12-19T14:03:40.158Z,9.90
2018-12-19T14:04:45.485Z,9.90
2018-12-19T14:05:49.343Z,9.90
2018-12-19T14:06:53.000Z,9.90
2018-12-19T14:07:56.563Z,9.90
2018-12-19T14:09:01.432Z,9.90